createdAt,value
2023-05-10T00:02:49.422Z,58.34
2023-05-10T00:05:51.959Z,58.86
2023-05-10T00:08:54.420Z,58.79
2023-05-10T00:11:59.345Z,59.68
2023-05-10T00:15:01.831Z,59.43
2023-05-10T00:18:05.301Z,59.58
2023-05-10T00:21:07.737Z,59.72
2023-05-10T00:24:10.261Z,60.63
2023-05-10T00:27:12.776Z,60.56
2023-05-10T00:30:16.248Z,60.56
2023-05-10T00:33:19.328Z,60.30
2023-05-10T00:36:22.171Z,60.66
2023-05-10T00:39:24.752Z,60.23
2023-05-10T00:42:27.116Z,61.12
2023-05-10T00:45:34.460Z,61.16
2023-05-10T00:48:37.309Z,61.13
2023-05-10T00:51:40.087Z,61.09
2023-05-10T00:54:42.896Z,60.84
2023-05-10T00:57:45.582Z,61.08
2023-05-10T01:00:49.460Z,60.49
2023-05-10T01:03:52.228Z,60.31
2023-05-10T01:06:54.759Z,59.91
2023-05-10T01:09:57.824Z,60.20
2023-05-10T01:13:00.981Z,60.86
2023-05-10T01:16:04.377Z,61.42
2023-05-10T01:19:13.896Z,61.61
2023-05-10T01:22:41.059Z,61.58
2023-05-10T01:26:34.911Z,62.03
2023-05-10T01:29:51.494Z,62.25
2023-05-10T01:33:19.385Z,61.80
2023-05-10T01:37:03.817Z,61.86
2023-05-10T01:40:14.382Z,62.13
2023-05-10T01:43:24.151Z,62.70
2023-05-10T01:46:38.043Z,61.64
2023-05-10T01:49:48.655Z,62.42
2023-05-10T01:52:56.485Z,62.97
2023-05-10T01:56:01.428Z,62.82
2023-05-10T01:59:08.077Z,63.74
2023-05-10T02:02:13.216Z,63.93
2023-05-10T02:05:17.201Z,63.60
2023-05-10T02:08:21.975Z,64.06
2023-05-10T02:11:25.891Z,64.27
2023-05-10T02:14:29.970Z,63.95
2023-05-10T02:17:33.801Z,64.90
2023-05-10T02:20:38.027Z,64.44
2023-05-10T02:23:41.075Z,64.64
2023-05-10T02:26:45.258Z,64.86
2023-05-10T02:29:48.306Z,65.22
2023-05-10T02:32:53.417Z,65.42
2023-05-10T02:35:57.046Z,65.46
2023-05-10T02:39:03.082Z,66.07
2023-05-10T02:42:07.455Z,65.65
2023-05-10T02:45:14.283Z,64.73
2023-05-10T02:48:18.715Z,64.23
2023-05-10T02:51:25.869Z,64.29
2023-05-10T02:54:32.824Z,64.05
2023-05-10T02:57:38.332Z,64.37
2023-05-10T03:00:40.905Z,66.18
2023-05-10T03:03:43.709Z,66.37
2023-05-10T03:06:46.677Z,66.33
2023-05-10T03:09:50.461Z,66.65
2023-05-10T03:13:13.926Z,66.75
2023-05-10T03:16:20.495Z,67.03
2023-05-10T03:19:40.886Z,66.87
2023-05-10T03:22:48.241Z,66.78
2023-05-10T03:25:51.776Z,66.17
2023-05-10T03:28:55.444Z,67.46
2023-05-10T03:32:01.192Z,67.55
2023-05-10T03:35:10.095Z,67.82
2023-05-10T03:38:14.135Z,68.24
2023-05-10T03:41:16.586Z,67.84
2023-05-10T03:44:19.125Z,68.51
2023-05-10T03:47:21.523Z,68.33
2023-05-10T03:50:24.401Z,67.92
2023-05-10T03:53:27.907Z,66.05
2023-05-10T03:56:31.100Z,66.86
2023-05-10T03:59:33.893Z,64.98
2023-05-10T04:02:36.457Z,65.04
2023-05-10T04:05:39.131Z,63.15
2023-05-10T04:08:42.217Z,63.08
2023-05-10T04:11:44.588Z,62.26
2023-05-10T04:14:46.974Z,61.89
2023-05-10T04:17:49.532Z,61.79
2023-05-10T04:20:51.983Z,60.68
2023-05-10T04:23:54.421Z,60.41
2023-05-10T04:26:57.904Z,60.08
2023-05-10T04:30:00.542Z,59.29
2023-05-10T04:33:02.991Z,59.22
2023-05-10T04:36:06.082Z,58.54
2023-05-10T04:39:08.555Z,58.04
2023-05-10T04:42:11.122Z,58.07
2023-05-10T04:45:15.589Z,58.38
2023-05-10T04:48:17.961Z,58.81
2023-05-10T04:51:21.504Z,58.74
2023-05-10T04:54:23.941Z,57.14
2023-05-10T04:57:26.392Z,57.21
2023-05-10T05:00:28.821Z,57.51
2023-05-10T05:03:31.252Z,57.95
2023-05-10T05:06:34.070Z,58.34
2023-05-10T05:09:36.603Z,57.33
2023-05-10T05:12:39.088Z,56.51
2023-05-10T05:15:41.528Z,57.19
2023-05-10T05:18:44.112Z,57.79
2023-05-10T05:21:46.738Z,56.33
2023-05-10T05:24:49.139Z,55.65
2023-05-10T05:27:51.610Z,56.46
2023-05-10T05:30:54.106Z,54.83
2023-05-10T05:33:56.767Z,55.58
2023-05-10T05:36:59.159Z,55.00
2023-05-10T05:40:02.775Z,54.43
2023-05-10T05:43:05.197Z,54.49
2023-05-10T05:46:07.572Z,53.28
2023-05-10T05:49:10.028Z,50.73
2023-05-10T05:52:12.668Z,47.32
2023-05-10T05:55:15.311Z,47.49
2023-05-10T05:58:18.005Z,45.93
2023-05-10T06:01:20.644Z,45.75
2023-05-10T06:04:23.258Z,44.49
2023-05-10T06:07:26.414Z,44.73
2023-05-10T06:10:28.938Z,46.80
2023-05-10T06:13:33.698Z,46.68
2023-05-10T06:16:36.342Z,45.45
2023-05-10T06:19:38.857Z,44.70
2023-05-10T06:22:41.271Z,41.72
2023-05-10T06:25:43.756Z,43.27
2023-05-10T06:28:46.209Z,42.03
2023-05-10T06:31:49.172Z,43.32
2023-05-10T06:34:51.951Z,42.38
2023-05-10T06:37:54.349Z,40.66
2023-05-10T06:40:56.801Z,42.11
2023-05-10T06:43:59.293Z,45.67
2023-05-10T06:47:01.692Z,45.05
2023-05-10T06:50:04.284Z,43.88
2023-05-10T06:53:06.738Z,45.43
2023-05-10T06:56:29.088Z,42.25
2023-05-10T06:59:31.553Z,44.25
2023-05-10T07:02:34.168Z,45.37
2023-05-10T07:05:36.987Z,43.89
2023-05-10T07:08:39.397Z,41.05
2023-05-10T07:11:41.807Z,44.12
2023-05-10T07:14:44.161Z,44.45
2023-05-10T07:17:46.735Z,41.91
2023-05-10T07:20:49.172Z,38.73
2023-05-10T07:23:51.614Z,36.30
2023-05-10T07:26:53.978Z,33.27
2023-05-10T07:29:57.579Z,35.05
2023-05-10T07:33:00.322Z,35.30
2023-05-10T07:36:02.767Z,36.01
2023-05-10T07:39:05.169Z,35.10
2023-05-10T07:42:07.526Z,37.49
2023-05-10T07:45:10.415Z,37.72
2023-05-10T07:48:12.773Z,36.61
2023-05-10T07:51:15.134Z,33.22
2023-05-10T07:54:17.550Z,30.06
2023-05-10T07:57:20.800Z,31.13
2023-05-10T08:00:23.260Z,29.03
2023-05-10T08:03:25.675Z,33.09
2023-05-10T08:06:29.315Z,35.88
2023-05-10T08:09:31.689Z,35.74
2023-05-10T08:12:34.041Z,33.29
2023-05-10T08:15:36.423Z,33.99
2023-05-10T08:18:39.979Z,37.58
2023-05-10T08:21:43.409Z,42.14
2023-05-10T08:24:46.198Z,39.24
2023-05-10T08:27:48.581Z,35.56
2023-05-10T08:30:54.066Z,35.39
2023-05-10T08:33:56.675Z,39.31
2023-05-10T08:36:59.056Z,40.87
2023-05-10T08:40:01.546Z,41.67
2023-05-10T08:43:08.154Z,41.87
2023-05-10T08:46:11.631Z,44.61
2023-05-10T08:49:21.214Z,44.27
2023-05-10T08:52:27.604Z,42.70
2023-05-10T08:55:30.452Z,39.71
2023-05-10T08:58:33.016Z,31.53
2023-05-10T09:01:37.701Z,32.64
2023-05-10T09:04:40.207Z,34.34
2023-05-10T09:07:43.095Z,34.79
2023-05-10T09:10:48.190Z,28.74
2023-05-10T09:13:53.239Z,31.47
2023-05-10T09:16:56.453Z,34.26
2023-05-10T09:20:00.566Z,38.18
2023-05-10T09:23:03.103Z,37.96
2023-05-10T09:26:06.434Z,35.81
2023-05-10T09:29:09.468Z,31.38
2023-05-10T09:32:13.859Z,31.42
2023-05-10T09:35:20.295Z,29.71
2023-05-10T09:38:22.678Z,30.38
2023-05-10T09:41:26.013Z,29.18
2023-05-10T09:44:28.530Z,27.92
2023-05-10T09:47:33.582Z,28.57
2023-05-10T09:50:35.971Z,28.03
2023-05-10T09:53:38.534Z,30.07
2023-05-10T09:56:41.711Z,36.82
2023-05-10T09:59:44.503Z,37.46
2023-05-10T10:02:49.075Z,36.79
2023-05-10T10:05:52.297Z,32.03
2023-05-10T10:08:56.758Z,29.51
2023-05-10T10:12:00.761Z,28.89
2023-05-10T10:15:03.307Z,29.73
2023-05-10T10:18:06.578Z,30.36
2023-05-10T10:21:09.761Z,28.23
2023-05-10T10:24:12.105Z,30.99
2023-05-10T10:27:20.420Z,30.83
2023-05-10T10:30:31.117Z,29.22
2023-05-10T10:33:48.576Z,29.01
2023-05-10T10:36:50.965Z,28.70
2023-05-10T10:39:55.769Z,29.35
2023-05-10T10:42:59.074Z,27.27
2023-05-10T10:46:22.892Z,28.60
2023-05-10T10:49:25.878Z,27.58
2023-05-10T10:52:35.956Z,26.17
2023-05-10T10:55:49.178Z,27.89
2023-05-10T10:58:54.835Z,29.36
2023-05-10T11:01:57.598Z,26.20
2023-05-10T11:05:00.269Z,24.68
2023-05-10T11:08:08.476Z,25.92
2023-05-10T11:11:11.169Z,26.70
2023-05-10T11:14:13.538Z,24.05
2023-05-10T11:17:27.731Z,24.73
2023-05-10T11:20:39.504Z,23.59
2023-05-10T11:23:44.622Z,25.30
2023-05-10T11:26:47.341Z,24.15
2023-05-10T11:29:52.787Z,22.85
2023-05-10T11:32:55.702Z,23.55
2023-05-10T11:35:58.260Z,22.60
2023-05-10T11:39:00.798Z,25.50
2023-05-10T11:42:03.359Z,29.12
2023-05-10T11:45:06.849Z,30.78
2023-05-10T11:48:09.324Z,30.19
2023-05-10T11:51:12.353Z,31.25
2023-05-10T11:54:14.900Z,31.92
2023-05-10T11:57:18.917Z,31.48
2023-05-10T12:00:22.300Z,28.78
2023-05-10T12:03:24.822Z,27.75
2023-05-10T12:06:29.732Z,25.44
2023-05-10T12:09:43.270Z,26.45
2023-05-10T12:12:50.888Z,26.46
2023-05-10T12:15:53.510Z,26.22
2023-05-10T12:19:01.361Z,24.42
2023-05-10T12:22:06.496Z,25.91
2023-05-10T12:25:11.815Z,27.06
2023-05-10T12:28:14.199Z,27.04
2023-05-10T12:31:16.666Z,24.82
2023-05-10T12:34:31.484Z,23.76
2023-05-10T12:37:36.832Z,26.53
2023-05-10T12:40:39.255Z,24.16
2023-05-10T12:43:41.962Z,22.05
2023-05-10T12:46:44.328Z,22.46
2023-05-10T12:49:46.885Z,22.79
2023-05-10T12:52:49.199Z,22.17
2023-05-10T12:55:51.586Z,23.94
2023-05-10T12:58:54.021Z,22.92
2023-05-10T13:01:56.457Z,22.67
2023-05-10T13:04:58.884Z,24.54
2023-05-10T13:08:01.497Z,24.29
2023-05-10T13:11:04.450Z,24.65
2023-05-10T13:14:06.773Z,22.44
2023-05-10T13:17:09.434Z,23.53
2023-05-10T13:20:12.255Z,25.36
2023-05-10T13:23:14.661Z,26.25
2023-05-10T13:26:17.104Z,24.91
2023-05-10T13:29:20.290Z,24.25
2023-05-10T13:32:22.724Z,23.08
2023-05-10T13:35:25.169Z,26.01
2023-05-10T13:38:27.535Z,27.22
2023-05-10T13:41:29.995Z,26.88
2023-05-10T13:44:34.405Z,29.99
2023-05-10T13:47:37.404Z,28.19
2023-05-10T13:50:39.806Z,29.07
2023-05-10T13:53:42.450Z,29.52
2023-05-10T13:56:44.983Z,29.94
2023-05-10T13:59:47.665Z,29.49
2023-05-10T14:02:50.060Z,30.77
2023-05-10T14:05:52.492Z,27.76
2023-05-10T14:08:54.955Z,28.21
2023-05-10T14:11:57.523Z,27.84
2023-05-10T14:14:59.889Z,28.16
2023-05-10T14:18:02.721Z,28.07
2023-05-10T14:21:05.181Z,28.46
2023-05-10T14:24:08.208Z,27.77
2023-05-10T14:27:10.519Z,27.45
2023-05-10T14:30:13.249Z,27.58
2023-05-10T14:33:15.923Z,28.65
2023-05-10T14:36:18.647Z,28.01
2023-05-10T14:39:20.974Z,28.13
2023-05-10T14:42:23.351Z,27.88
2023-05-10T14:45:25.714Z,27.83
2023-05-10T14:48:28.106Z,29.88
2023-05-10T14:51:30.780Z,28.56
2023-05-10T14:54:34.495Z,28.02
2023-05-10T14:57:37.141Z,27.08
2023-05-10T15:00:39.520Z,28.02
2023-05-10T15:03:42.322Z,27.05
2023-05-10T15:06:45.320Z,30.86
2023-05-10T15:09:47.766Z,28.88
2023-05-10T15:12:51.082Z,28.86
2023-05-10T15:15:53.724Z,30.08
2023-05-10T15:18:56.156Z,28.29
2023-05-10T15:21:58.639Z,28.74
2023-05-10T15:25:01.138Z,28.86
2023-05-10T15:28:03.963Z,29.07
2023-05-10T15:31:06.329Z,30.19
2023-05-10T15:34:08.683Z,29.19
2023-05-10T15:37:11.066Z,30.12
2023-05-10T15:40:13.461Z,30.05
2023-05-10T15:43:16.267Z,30.09
2023-05-10T15:46:18.638Z,30.17
2023-05-10T15:49:21.227Z,30.67
2023-05-10T15:52:24.405Z,30.46
2023-05-10T15:55:26.975Z,30.68
2023-05-10T15:58:29.331Z,29.54
2023-05-10T16:01:32.909Z,31.54
2023-05-10T16:04:35.347Z,31.30
2023-05-10T16:07:37.758Z,30.36
2023-05-10T16:10:40.139Z,30.75
2023-05-10T16:13:42.565Z,30.88
2023-05-10T16:16:45.055Z,29.75
2023-05-10T16:19:47.557Z,31.80
2023-05-10T16:22:49.964Z,31.62
2023-05-10T16:25:52.332Z,29.87
2023-05-10T16:28:54.771Z,30.63
2023-05-10T16:31:57.147Z,31.34
2023-05-10T16:35:00.438Z,31.03
2023-05-10T16:38:03.062Z,31.16
2023-05-10T16:41:06.732Z,31.73
2023-05-10T16:44:09.083Z,33.74
2023-05-10T16:47:11.383Z,32.84
2023-05-10T16:50:14.937Z,33.63
2023-05-10T16:53:17.346Z,33.09
2023-05-10T16:56:21.795Z,34.59
2023-05-10T16:59:24.247Z,35.40
2023-05-10T17:02:26.826Z,35.51
2023-05-10T17:05:29.518Z,35.63
2023-05-10T17:08:31.846Z,36.71
2023-05-10T17:11:34.264Z,37.39
2023-05-10T17:14:38.200Z,37.89
2023-05-10T17:17:40.594Z,38.46
2023-05-10T17:20:44.729Z,39.19
2023-05-10T17:23:47.082Z,40.48
2023-05-10T17:26:49.424Z,42.48
2023-05-10T17:29:56.453Z,40.54
2023-05-10T17:33:00.153Z,41.51
2023-05-10T17:36:02.708Z,42.71
2023-05-10T17:39:05.139Z,43.82
2023-05-10T17:42:07.597Z,44.14
2023-05-10T17:45:10.775Z,44.46
2023-05-10T17:48:13.468Z,45.16
2023-05-10T17:51:15.833Z,44.90
2023-05-10T17:54:18.231Z,45.68
2023-05-10T17:57:20.891Z,46.88
2023-05-10T18:00:23.348Z,46.61
2023-05-10T18:03:25.840Z,47.41
2023-05-10T18:06:28.436Z,48.45
2023-05-10T18:09:30.968Z,48.62
2023-05-10T18:12:33.301Z,49.91
2023-05-10T18:15:35.725Z,49.54
2023-05-10T18:18:39.396Z,49.64
2023-05-10T18:21:41.793Z,50.47
2023-05-10T18:24:44.203Z,50.71
2023-05-10T18:27:46.533Z,49.58
2023-05-10T18:30:48.909Z,49.82
2023-05-10T18:33:51.258Z,49.88
2023-05-10T18:36:53.845Z,50.46
2023-05-10T18:39:57.710Z,51.86
2023-05-10T18:43:00.271Z,51.62
2023-05-10T18:46:02.670Z,52.54
2023-05-10T18:49:05.868Z,52.14
2023-05-10T18:52:08.227Z,52.70
2023-05-10T18:55:10.727Z,51.30
2023-05-10T18:58:13.078Z,51.77
2023-05-10T19:01:16.346Z,52.26
2023-05-10T19:04:18.817Z,52.22
2023-05-10T19:07:21.190Z,52.61
2023-05-10T19:10:23.722Z,51.68
2023-05-10T19:13:28.331Z,52.62
2023-05-10T19:16:30.945Z,52.71
2023-05-10T19:19:33.795Z,54.03
2023-05-10T19:22:54.042Z,52.51
2023-05-10T19:25:59.850Z,53.08
2023-05-10T19:29:02.377Z,53.37
2023-05-10T19:32:05.197Z,53.04
2023-05-10T19:35:08.393Z,53.95
2023-05-10T19:38:11.014Z,53.88
2023-05-10T19:41:14.771Z,53.93
2023-05-10T19:44:18.074Z,53.47
2023-05-10T19:47:21.427Z,53.55
2023-05-10T19:50:23.824Z,53.46
2023-05-10T19:53:26.273Z,53.02
2023-05-10T19:56:29.666Z,52.74
2023-05-10T19:59:32.032Z,52.32
2023-05-10T20:02:34.407Z,51.99
2023-05-10T20:05:37.042Z,51.96
2023-05-10T20:08:39.399Z,51.95
2023-05-10T20:11:41.758Z,52.81
2023-05-10T20:14:44.401Z,51.68
2023-05-10T20:17:48.093Z,51.83
2023-05-10T20:20:55.127Z,52.48
2023-05-10T20:23:58.246Z,52.11
2023-05-10T20:27:00.910Z,52.17
2023-05-10T20:30:04.596Z,52.51
2023-05-10T20:33:07.151Z,51.95
2023-05-10T20:36:12.275Z,52.75
2023-05-10T20:39:15.073Z,52.23
2023-05-10T20:42:17.475Z,51.90
2023-05-10T20:45:20.471Z,52.07
2023-05-10T20:48:22.967Z,50.69
2023-05-10T20:51:25.456Z,51.16
2023-05-10T20:54:27.893Z,51.85
2023-05-10T20:57:30.307Z,51.95
2023-05-10T21:00:32.639Z,51.62
2023-05-10T21:03:35.191Z,51.27
2023-05-10T21:06:37.642Z,50.77
2023-05-10T21:09:39.967Z,51.52
2023-05-10T21:12:42.335Z,50.25
2023-05-10T21:15:44.703Z,50.79
2023-05-10T21:18:47.266Z,51.45
2023-05-10T21:21:49.599Z,50.97
2023-05-10T21:24:51.990Z,51.42
2023-05-10T21:27:54.312Z,50.45
2023-05-10T21:30:56.834Z,50.62
2023-05-10T21:33:59.197Z,49.37
2023-05-10T21:37:01.655Z,49.70
2023-05-10T21:40:04.883Z,49.96
2023-05-10T21:43:08.269Z,49.25
2023-05-10T21:46:10.802Z,48.52
2023-05-10T21:49:13.247Z,48.43
2023-05-10T21:52:15.572Z,48.42
2023-05-10T21:55:18.328Z,48.87
2023-05-10T21:58:20.860Z,48.08
2023-05-10T22:01:23.295Z,49.19
2023-05-10T22:04:25.658Z,49.32
2023-05-10T22:07:28.144Z,48.80
2023-05-10T22:10:30.497Z,49.24
2023-05-10T22:13:32.838Z,49.75
2023-05-10T22:16:35.684Z,49.44
2023-05-10T22:19:38.130Z,49.19
2023-05-10T22:22:40.438Z,49.44
2023-05-10T22:25:43.034Z,50.03
2023-05-10T22:28:45.403Z,49.69
2023-05-10T22:31:47.851Z,49.33
2023-05-10T22:34:50.224Z,48.96
2023-05-10T22:37:52.572Z,49.53
2023-05-10T22:40:54.937Z,48.89
2023-05-10T22:43:57.274Z,49.16
2023-05-10T22:46:59.903Z,49.27
2023-05-10T22:50:05.423Z,48.94
2023-05-10T22:53:08.081Z,49.23
2023-05-10T22:56:10.475Z,49.15
2023-05-10T22:59:12.840Z,49.89
2023-05-10T23:02:15.475Z,49.97
2023-05-10T23:05:18.114Z,50.57
2023-05-10T23:08:20.468Z,50.30
2023-05-10T23:11:22.897Z,50.49
2023-05-10T23:14:25.246Z,51.27
2023-05-10T23:17:27.640Z,50.92
2023-05-10T23:20:30.068Z,51.17
2023-05-10T23:23:34.035Z,52.79
2023-05-10T23:26:36.411Z,52.09
2023-05-10T23:29:38.773Z,52.33
2023-05-10T23:32:41.129Z,51.89
2023-05-10T23:35:43.552Z,51.74
2023-05-10T23:38:45.990Z,52.40
2023-05-10T23:41:48.358Z,52.50
2023-05-10T23:44:52.299Z,56.35
2023-05-10T23:47:54.721Z,57.84
2023-05-10T23:50:57.122Z,58.55
2023-05-10T23:53:59.601Z,59.17
2023-05-10T23:57:02.087Z,59.61
